Morley, Canada
Current Conditions -  °F | °C
As of 1:00 PM on Wednesday 28 Jan 2015 (Local Time) from CYBW Reporting Station
Clear Clear  
Wind Chill: 36°   Ceiling: Unl
Heat Index: 41°   Visibility: 9mi
Dew Point: 30°   Wind: 8mph
Humidity: 65%   Direction: 110°ESE
Pressure: 30.23"   Gusts: NA
Location:  51.17°N, 114.85°W
Report Text: CYBW 282000Z AUTO 11007KT 9SM CLR 05/M01 A3023 RMK SLP277
Loading
Personal Weather Stations






























Interactive Weather Map New forecast layout! Learn more

10-Day Weather Forecast

Advertisements
Track Severe Weather on mobile